sensor_id;sensor_type;location;lat;lon;timestamp;P1;durP1;ratioP1;P2;durP2;ratioP2
73776;SDS011;62088;50.240;2.696;2023-04-03T00:01:03;11.20;;;6.75;;
73776;SDS011;62088;50.240;2.696;2023-04-03T00:03:30;12.82;;;8.68;;
73776;SDS011;62088;50.240;2.696;2023-04-03T00:05:58;9.85;;;6.40;;
73776;SDS011;62088;50.240;2.696;2023-04-03T00:08:25;11.20;;;6.93;;
73776;SDS011;62088;50.240;2.696;2023-04-03T00:10:52;10.18;;;7.07;;
73776;SDS011;62088;50.240;2.696;2023-04-03T00:13:20;19.13;;;6.85;;
73776;SDS011;62088;50.240;2.696;2023-04-03T00:15:47;10.32;;;6.68;;
73776;SDS011;62088;50.240;2.696;2023-04-03T00:18:14;10.15;;;6.25;;
73776;SDS011;62088;50.240;2.696;2023-04-03T00:20:41;9.88;;;6.47;;
73776;SDS011;62088;50.240;2.696;2023-04-03T00:23:08;11.50;;;7.38;;
73776;SDS011;62088;50.240;2.696;2023-04-03T00:25:35;10.85;;;6.93;;
73776;SDS011;62088;50.240;2.696;2023-04-03T00:28:03;9.95;;;6.13;;
73776;SDS011;62088;50.240;2.696;2023-04-03T00:30:31;9.88;;;6.28;;
73776;SDS011;62088;50.240;2.696;2023-04-03T00:32:58;10.25;;;6.60;;
73776;SDS011;62088;50.240;2.696;2023-04-03T00:35:27;10.48;;;6.93;;
73776;SDS011;62088;50.240;2.696;2023-04-03T00:37:55;12.48;;;7.03;;
73776;SDS011;62088;50.240;2.696;2023-04-03T00:40:23;11.18;;;6.68;;
73776;SDS011;62088;50.240;2.696;2023-04-03T00:42:55;10.45;;;6.97;;
73776;SDS011;62088;50.240;2.696;2023-04-03T00:47:54;10.35;;;7.05;;
73776;SDS011;62088;50.240;2.696;2023-04-03T00:50:22;12.05;;;7.25;;
73776;SDS011;62088;50.240;2.696;2023-04-03T00:52:49;12.40;;;6.40;;
73776;SDS011;62088;50.240;2.696;2023-04-03T00:55:18;11.48;;;5.93;;
73776;SDS011;62088;50.240;2.696;2023-04-03T00:57:47;12.38;;;6.82;;
73776;SDS011;62088;50.240;2.696;2023-04-03T01:00:16;7.90;;;5.32;;
73776;SDS011;62088;50.240;2.696;2023-04-03T01:02:45;10.32;;;6.20;;
73776;SDS011;62088;50.240;2.696;2023-04-03T01:05:13;9.85;;;6.68;;
73776;SDS011;62088;50.240;2.696;2023-04-03T01:07:43;8.98;;;5.63;;
73776;SDS011;62088;50.240;2.696;2023-04-03T01:10:12;11.50;;;6.50;;
73776;SDS011;62088;50.240;2.696;2023-04-03T01:12:42;11.05;;;6.15;;
73776;SDS011;62088;50.240;2.696;2023-04-03T01:15:14;11.18;;;6.60;;
73776;SDS011;62088;50.240;2.696;2023-04-03T01:17:53;11.63;;;5.15;;
73776;SDS011;62088;50.240;2.696;2023-04-03T01:28:09;9.35;;;5.45;;
73776;SDS011;62088;50.240;2.696;2023-04-03T01:30:41;11.02;;;6.75;;
73776;SDS011;62088;50.240;2.696;2023-04-03T01:33:16;13.02;;;6.40;;
73776;SDS011;62088;50.240;2.696;2023-04-03T01:35:44;9.95;;;6.22;;
73776;SDS011;62088;50.240;2.696;2023-04-03T01:38:12;9.75;;;5.30;;
73776;SDS011;62088;50.240;2.696;2023-04-03T01:40:39;11.43;;;6.55;;
73776;SDS011;62088;50.240;2.696;2023-04-03T01:43:06;10.25;;;6.10;;
73776;SDS011;62088;50.240;2.696;2023-04-03T01:45:33;12.73;;;6.72;;
73776;SDS011;62088;50.240;2.696;2023-04-03T01:48:00;13.88;;;6.03;;
73776;SDS011;62088;50.240;2.696;2023-04-03T01:50:28;10.63;;;6.45;;
73776;SDS011;62088;50.240;2.696;2023-04-03T01:52:55;11.68;;;6.30;;
73776;SDS011;62088;50.240;2.696;2023-04-03T01:55:22;10.55;;;6.38;;
73776;SDS011;62088;50.240;2.696;2023-04-03T01:57:49;9.60;;;6.05;;
73776;SDS011;62088;50.240;2.696;2023-04-03T02:00:16;11.50;;;5.60;;
73776;SDS011;62088;50.240;2.696;2023-04-03T02:02:43;11.40;;;5.97;;
73776;SDS011;62088;50.240;2.696;2023-04-03T02:05:10;11.68;;;5.97;;
73776;SDS011;62088;50.240;2.696;2023-04-03T02:07:38;11.38;;;6.57;;
73776;SDS011;62088;50.240;2.696;2023-04-03T02:10:05;11.68;;;7.18;;
73776;SDS011;62088;50.240;2.696;2023-04-03T02:12:32;11.02;;;6.97;;
73776;SDS011;62088;50.240;2.696;2023-04-03T02:14:59;10.48;;;6.82;;
73776;SDS011;62088;50.240;2.696;2023-04-03T02:17:27;11.70;;;7.55;;
73776;SDS011;62088;50.240;2.696;2023-04-03T02:19:54;13.25;;;7.07;;
73776;SDS011;62088;50.240;2.696;2023-04-03T02:22:22;14.30;;;8.07;;
73776;SDS011;62088;50.240;2.696;2023-04-03T02:24:50;11.00;;;6.70;;
73776;SDS011;62088;50.240;2.696;2023-04-03T02:27:19;12.88;;;7.80;;
73776;SDS011;62088;50.240;2.696;2023-04-03T02:29:47;13.88;;;7.90;;
73776;SDS011;62088;50.240;2.696;2023-04-03T02:32:14;11.20;;;7.03;;
73776;SDS011;62088;50.240;2.696;2023-04-03T02:34:42;13.65;;;7.93;;
73776;SDS011;62088;50.240;2.696;2023-04-03T02:37:11;12.52;;;7.28;;
73776;SDS011;62088;50.240;2.696;2023-04-03T02:39:39;11.05;;;7.65;;
73776;SDS011;62088;50.240;2.696;2023-04-03T02:42:06;13.18;;;8.13;;
73776;SDS011;62088;50.240;2.696;2023-04-03T02:44:34;12.88;;;8.00;;
73776;SDS011;62088;50.240;2.696;2023-04-03T02:47:02;12.48;;;7.35;;
73776;SDS011;62088;50.240;2.696;2023-04-03T02:49:29;12.77;;;7.93;;
73776;SDS011;62088;50.240;2.696;2023-04-03T02:51:56;13.55;;;7.47;;
73776;SDS011;62088;50.240;2.696;2023-04-03T02:54:23;14.00;;;8.02;;
73776;SDS011;62088;50.240;2.696;2023-04-03T02:56:56;13.70;;;7.72;;
73776;SDS011;62088;50.240;2.696;2023-04-03T02:59:24;12.77;;;7.43;;
73776;SDS011;62088;50.240;2.696;2023-04-03T03:01:52;14.05;;;7.15;;
73776;SDS011;62088;50.240;2.696;2023-04-03T03:04:19;11.88;;;7.25;;
73776;SDS011;62088;50.240;2.696;2023-04-03T03:06:46;13.40;;;8.38;;
73776;SDS011;62088;50.240;2.696;2023-04-03T03:09:13;11.88;;;7.30;;
73776;SDS011;62088;50.240;2.696;2023-04-03T03:11:41;14.63;;;7.85;;
73776;SDS011;62088;50.240;2.696;2023-04-03T03:14:08;12.40;;;7.63;;
73776;SDS011;62088;50.240;2.696;2023-04-03T03:16:36;12.75;;;7.40;;
73776;SDS011;62088;50.240;2.696;2023-04-03T03:19:03;13.55;;;8.10;;
73776;SDS011;62088;50.240;2.696;2023-04-03T03:21:30;12.88;;;7.68;;
73776;SDS011;62088;50.240;2.696;2023-04-03T03:23:57;11.23;;;7.53;;
73776;SDS011;62088;50.240;2.696;2023-04-03T03:26:25;11.73;;;6.72;;
73776;SDS011;62088;50.240;2.696;2023-04-03T03:28:53;14.07;;;8.38;;
73776;SDS011;62088;50.240;2.696;2023-04-03T03:31:21;14.00;;;8.38;;
73776;SDS011;62088;50.240;2.696;2023-04-03T03:33:48;14.05;;;7.95;;
73776;SDS011;62088;50.240;2.696;2023-04-03T03:36:15;17.63;;;9.77;;
73776;SDS011;62088;50.240;2.696;2023-04-03T03:38:42;15.18;;;9.82;;
73776;SDS011;62088;50.240;2.696;2023-04-03T03:41:09;15.93;;;9.38;;
73776;SDS011;62088;50.240;2.696;2023-04-03T03:43:37;16.13;;;8.20;;
73776;SDS011;62088;50.240;2.696;2023-04-03T03:46:06;14.55;;;8.80;;
73776;SDS011;62088;50.240;2.696;2023-04-03T03:48:33;14.45;;;8.73;;
73776;SDS011;62088;50.240;2.696;2023-04-03T03:51:00;16.33;;;8.88;;
73776;SDS011;62088;50.240;2.696;2023-04-03T03:53:31;14.88;;;8.65;;
73776;SDS011;62088;50.240;2.696;2023-04-03T03:56:03;12.68;;;8.05;;
73776;SDS011;62088;50.240;2.696;2023-04-03T03:58:32;14.00;;;7.72;;
73776;SDS011;62088;50.240;2.696;2023-04-03T04:01:04;13.25;;;8.13;;
73776;SDS011;62088;50.240;2.696;2023-04-03T04:03:37;14.98;;;7.15;;
73776;SDS011;62088;50.240;2.696;2023-04-03T04:06:06;15.10;;;8.15;;
73776;SDS011;62088;50.240;2.696;2023-04-03T04:08:33;16.17;;;8.20;;
73776;SDS011;62088;50.240;2.696;2023-04-03T04:11:00;12.50;;;7.40;;
73776;SDS011;62088;50.240;2.696;2023-04-03T04:13:28;11.23;;;7.07;;
73776;SDS011;62088;50.240;2.696;2023-04-03T04:15:55;11.98;;;7.78;;
73776;SDS011;62088;50.240;2.696;2023-04-03T04:18:22;11.30;;;6.03;;
73776;SDS011;62088;50.240;2.696;2023-04-03T04:20:50;11.80;;;7.57;;
73776;SDS011;62088;50.240;2.696;2023-04-03T04:23:18;12.43;;;7.70;;
73776;SDS011;62088;50.240;2.696;2023-04-03T04:25:47;12.65;;;7.03;;
73776;SDS011;62088;50.240;2.696;2023-04-03T04:28:15;11.52;;;7.03;;
73776;SDS011;62088;50.240;2.696;2023-04-03T04:30:43;12.98;;;7.53;;
73776;SDS011;62088;50.240;2.696;2023-04-03T04:33:12;11.95;;;7.70;;
73776;SDS011;62088;50.240;2.696;2023-04-03T04:35:41;21.35;;;7.78;;
73776;SDS011;62088;50.240;2.696;2023-04-03T04:38:10;11.02;;;6.80;;
73776;SDS011;62088;50.240;2.696;2023-04-03T04:40:37;12.90;;;7.18;;
73776;SDS011;62088;50.240;2.696;2023-04-03T04:43:05;14.40;;;6.70;;
73776;SDS011;62088;50.240;2.696;2023-04-03T04:45:33;9.52;;;6.20;;
73776;SDS011;62088;50.240;2.696;2023-04-03T04:48:01;14.63;;;6.95;;
73776;SDS011;62088;50.240;2.696;2023-04-03T04:50:29;11.02;;;6.43;;
73776;SDS011;62088;50.240;2.696;2023-04-03T04:52:56;15.68;;;7.15;;
73776;SDS011;62088;50.240;2.696;2023-04-03T04:55:23;10.35;;;6.97;;
73776;SDS011;62088;50.240;2.696;2023-04-03T04:57:51;12.75;;;8.23;;
73776;SDS011;62088;50.240;2.696;2023-04-03T05:00:19;10.63;;;6.57;;
73776;SDS011;62088;50.240;2.696;2023-04-03T05:02:47;15.40;;;7.55;;
73776;SDS011;62088;50.240;2.696;2023-04-03T05:05:14;12.13;;;7.38;;
73776;SDS011;62088;50.240;2.696;2023-04-03T05:07:41;12.38;;;7.63;;
73776;SDS011;62088;50.240;2.696;2023-04-03T05:10:09;12.88;;;8.27;;
73776;SDS011;62088;50.240;2.696;2023-04-03T05:12:37;14.35;;;8.13;;
73776;SDS011;62088;50.240;2.696;2023-04-03T05:15:04;12.05;;;7.45;;
73776;SDS011;62088;50.240;2.696;2023-04-03T05:17:32;14.18;;;7.88;;
73776;SDS011;62088;50.240;2.696;2023-04-03T05:20:01;16.67;;;7.40;;
73776;SDS011;62088;50.240;2.696;2023-04-03T05:22:29;13.88;;;8.00;;
73776;SDS011;62088;50.240;2.696;2023-04-03T05:25:03;10.60;;;7.20;;
73776;SDS011;62088;50.240;2.696;2023-04-03T05:27:31;14.73;;;8.70;;
73776;SDS011;62088;50.240;2.696;2023-04-03T05:29:58;13.93;;;8.57;;
73776;SDS011;62088;50.240;2.696;2023-04-03T05:32:26;18.65;;;10.27;;
73776;SDS011;62088;50.240;2.696;2023-04-03T05:35:20;15.57;;;9.35;;
73776;SDS011;62088;50.240;2.696;2023-04-03T05:37:50;14.27;;;7.88;;
73776;SDS011;62088;50.240;2.696;2023-04-03T05:40:18;17.67;;;8.82;;
73776;SDS011;62088;50.240;2.696;2023-04-03T05:42:49;17.42;;;8.30;;
73776;SDS011;62088;50.240;2.696;2023-04-03T05:45:18;14.80;;;8.27;;
73776;SDS011;62088;50.240;2.696;2023-04-03T05:47:45;14.20;;;8.50;;
73776;SDS011;62088;50.240;2.696;2023-04-03T05:50:13;23.13;;;8.80;;
73776;SDS011;62088;50.240;2.696;2023-04-03T05:52:42;23.92;;;8.68;;
73776;SDS011;62088;50.240;2.696;2023-04-03T05:55:13;15.90;;;7.90;;
73776;SDS011;62088;50.240;2.696;2023-04-03T05:57:40;28.35;;;9.38;;
73776;SDS011;62088;50.240;2.696;2023-04-03T06:00:08;18.17;;;8.38;;
73776;SDS011;62088;50.240;2.696;2023-04-03T06:02:47;12.38;;;7.43;;
73776;SDS011;62088;50.240;2.696;2023-04-03T06:05:19;15.85;;;7.78;;
73776;SDS011;62088;50.240;2.696;2023-04-03T06:07:46;17.20;;;8.75;;
73776;SDS011;62088;50.240;2.696;2023-04-03T06:10:15;17.33;;;8.13;;
73776;SDS011;62088;50.240;2.696;2023-04-03T06:12:44;16.75;;;7.38;;
73776;SDS011;62088;50.240;2.696;2023-04-03T06:15:11;10.10;;;6.50;;
73776;SDS011;62088;50.240;2.696;2023-04-03T06:17:39;12.02;;;7.32;;
73776;SDS011;62088;50.240;2.696;2023-04-03T06:20:07;13.38;;;7.47;;
73776;SDS011;62088;50.240;2.696;2023-04-03T06:22:36;10.43;;;6.75;;
73776;SDS011;62088;50.240;2.696;2023-04-03T06:25:03;15.00;;;9.30;;
73776;SDS011;62088;50.240;2.696;2023-04-03T06:27:31;18.63;;;10.45;;
73776;SDS011;62088;50.240;2.696;2023-04-03T06:29:58;13.95;;;8.23;;
73776;SDS011;62088;50.240;2.696;2023-04-03T06:32:25;13.55;;;6.63;;
73776;SDS011;62088;50.240;2.696;2023-04-03T06:34:52;12.20;;;7.07;;
73776;SDS011;62088;50.240;2.696;2023-04-03T06:37:21;13.75;;;7.88;;
73776;SDS011;62088;50.240;2.696;2023-04-03T06:39:52;12.23;;;7.50;;
73776;SDS011;62088;50.240;2.696;2023-04-03T06:42:19;12.77;;;7.53;;
73776;SDS011;62088;50.240;2.696;2023-04-03T06:44:54;13.52;;;6.40;;
73776;SDS011;62088;50.240;2.696;2023-04-03T06:47:21;9.95;;;6.43;;
73776;SDS011;62088;50.240;2.696;2023-04-03T06:49:48;12.13;;;7.03;;
73776;SDS011;62088;50.240;2.696;2023-04-03T06:52:15;13.18;;;6.82;;
73776;SDS011;62088;50.240;2.696;2023-04-03T06:54:42;10.02;;;5.22;;
73776;SDS011;62088;50.240;2.696;2023-04-03T06:57:09;11.63;;;7.20;;
73776;SDS011;62088;50.240;2.696;2023-04-03T06:59:36;8.77;;;5.43;;
73776;SDS011;62088;50.240;2.696;2023-04-03T07:02:03;12.05;;;5.57;;
73776;SDS011;62088;50.240;2.696;2023-04-03T07:04:30;13.27;;;5.88;;
73776;SDS011;62088;50.240;2.696;2023-04-03T07:06:58;9.80;;;6.05;;
73776;SDS011;62088;50.240;2.696;2023-04-03T07:09:25;11.18;;;6.05;;
73776;SDS011;62088;50.240;2.696;2023-04-03T07:11:52;9.98;;;5.68;;
73776;SDS011;62088;50.240;2.696;2023-04-03T07:14:19;16.40;;;7.15;;
73776;SDS011;62088;50.240;2.696;2023-04-03T07:16:47;11.57;;;6.07;;
73776;SDS011;62088;50.240;2.696;2023-04-03T07:19:14;10.38;;;5.50;;
73776;SDS011;62088;50.240;2.696;2023-04-03T07:21:41;8.63;;;5.38;;
73776;SDS011;62088;50.240;2.696;2023-04-03T07:24:09;12.10;;;6.43;;
73776;SDS011;62088;50.240;2.696;2023-04-03T07:26:41;8.73;;;5.55;;
73776;SDS011;62088;50.240;2.696;2023-04-03T07:29:09;9.35;;;6.10;;
73776;SDS011;62088;50.240;2.696;2023-04-03T07:31:36;8.10;;;4.78;;
73776;SDS011;62088;50.240;2.696;2023-04-03T07:34:05;8.52;;;5.50;;
73776;SDS011;62088;50.240;2.696;2023-04-03T07:36:32;12.50;;;6.95;;
73776;SDS011;62088;50.240;2.696;2023-04-03T07:38:59;13.23;;;6.53;;
73776;SDS011;62088;50.240;2.696;2023-04-03T07:41:27;9.55;;;5.70;;
73776;SDS011;62088;50.240;2.696;2023-04-03T07:43:54;10.10;;;6.18;;
73776;SDS011;62088;50.240;2.696;2023-04-03T07:46:23;11.02;;;6.10;;
73776;SDS011;62088;50.240;2.696;2023-04-03T07:48:50;11.60;;;6.07;;
73776;SDS011;62088;50.240;2.696;2023-04-03T07:51:17;9.93;;;6.07;;
73776;SDS011;62088;50.240;2.696;2023-04-03T07:53:44;11.63;;;5.13;;
73776;SDS011;62088;50.240;2.696;2023-04-03T07:56:14;10.57;;;5.47;;
73776;SDS011;62088;50.240;2.696;2023-04-03T07:58:41;8.00;;;4.97;;
73776;SDS011;62088;50.240;2.696;2023-04-03T08:01:08;8.80;;;4.70;;
73776;SDS011;62088;50.240;2.696;2023-04-03T08:03:35;9.00;;;5.47;;
73776;SDS011;62088;50.240;2.696;2023-04-03T08:06:05;9.25;;;3.97;;
73776;SDS011;62088;50.240;2.696;2023-04-03T08:08:41;9.13;;;4.55;;
73776;SDS011;62088;50.240;2.696;2023-04-03T08:11:09;7.65;;;4.38;;
73776;SDS011;62088;50.240;2.696;2023-04-03T08:13:37;11.13;;;4.68;;
73776;SDS011;62088;50.240;2.696;2023-04-03T08:16:11;10.90;;;5.00;;
73776;SDS011;62088;50.240;2.696;2023-04-03T08:18:43;9.48;;;4.38;;
73776;SDS011;62088;50.240;2.696;2023-04-03T08:21:10;8.55;;;4.15;;
73776;SDS011;62088;50.240;2.696;2023-04-03T08:23:39;7.32;;;3.72;;
73776;SDS011;62088;50.240;2.696;2023-04-03T08:26:11;7.20;;;3.80;;
73776;SDS011;62088;50.240;2.696;2023-04-03T08:28:40;7.32;;;3.97;;
73776;SDS011;62088;50.240;2.696;2023-04-03T08:31:12;7.50;;;3.85;;
73776;SDS011;62088;50.240;2.696;2023-04-03T08:33:42;6.65;;;3.90;;
73776;SDS011;62088;50.240;2.696;2023-04-03T08:36:17;7.57;;;4.03;;
73776;SDS011;62088;50.240;2.696;2023-04-03T08:38:44;9.73;;;3.60;;
73776;SDS011;62088;50.240;2.696;2023-04-03T08:41:16;6.38;;;4.10;;
73776;SDS011;62088;50.240;2.696;2023-04-03T08:47:02;9.02;;;3.83;;
73776;SDS011;62088;50.240;2.696;2023-04-03T08:52:03;7.50;;;3.40;;
73776;SDS011;62088;50.240;2.696;2023-04-03T08:54:48;6.88;;;3.97;;
73776;SDS011;62088;50.240;2.696;2023-04-03T08:57:39;7.93;;;3.92;;
73776;SDS011;62088;50.240;2.696;2023-04-03T09:00:20;5.10;;;2.85;;
73776;SDS011;62088;50.240;2.696;2023-04-03T09:02:50;6.80;;;3.58;;
73776;SDS011;62088;50.240;2.696;2023-04-03T09:08:18;8.52;;;4.85;;
73776;SDS011;62088;50.240;2.696;2023-04-03T09:11:04;7.10;;;3.40;;
73776;SDS011;62088;50.240;2.696;2023-04-03T09:16:39;8.18;;;3.13;;
73776;SDS011;62088;50.240;2.696;2023-04-03T09:24:47;14.38;;;5.38;;
73776;SDS011;62088;50.240;2.696;2023-04-03T09:27:36;8.00;;;3.55;;
73776;SDS011;62088;50.240;2.696;2023-04-03T09:30:03;6.03;;;3.50;;
73776;SDS011;62088;50.240;2.696;2023-04-03T09:32:34;9.32;;;3.78;;
73776;SDS011;62088;50.240;2.696;2023-04-03T09:35:03;8.38;;;3.85;;
73776;SDS011;62088;50.240;2.696;2023-04-03T09:37:46;8.63;;;4.25;;
73776;SDS011;62088;50.240;2.696;2023-04-03T09:40:32;8.43;;;4.78;;
73776;SDS011;62088;50.240;2.696;2023-04-03T09:43:09;8.43;;;5.50;;
73776;SDS011;62088;50.240;2.696;2023-04-03T09:45:46;4.82;;;2.22;;
73776;SDS011;62088;50.240;2.696;2023-04-03T09:48:17;7.35;;;2.58;;
73776;SDS011;62088;50.240;2.696;2023-04-03T09:55:59;7.70;;;3.75;;
73776;SDS011;62088;50.240;2.696;2023-04-03T09:58:39;6.75;;;2.47;;
73776;SDS011;62088;50.240;2.696;2023-04-03T10:06:40;8.05;;;3.17;;
73776;SDS011;62088;50.240;2.696;2023-04-03T10:09:25;4.97;;;2.28;;
73776;SDS011;62088;50.240;2.696;2023-04-03T10:14:37;6.47;;;2.67;;
73776;SDS011;62088;50.240;2.696;2023-04-03T10:25:01;7.47;;;3.00;;
73776;SDS011;62088;50.240;2.696;2023-04-03T10:44:42;6.68;;;3.25;;
73776;SDS011;62088;50.240;2.696;2023-04-03T10:55:40;7.88;;;3.60;;
73776;SDS011;62088;50.240;2.696;2023-04-03T10:58:24;8.25;;;4.28;;
73776;SDS011;62088;50.240;2.696;2023-04-03T11:01:13;8.57;;;3.90;;
73776;SDS011;62088;50.240;2.696;2023-04-03T11:03:47;7.93;;;3.90;;
73776;SDS011;62088;50.240;2.696;2023-04-03T11:06:18;6.00;;;3.10;;
73776;SDS011;62088;50.240;2.696;2023-04-03T11:08:51;7.40;;;3.55;;
73776;SDS011;62088;50.240;2.696;2023-04-03T11:11:25;5.68;;;3.25;;
73776;SDS011;62088;50.240;2.696;2023-04-03T11:14:03;6.03;;;3.33;;
73776;SDS011;62088;50.240;2.696;2023-04-03T11:16:51;4.75;;;2.65;;
73776;SDS011;62088;50.240;2.696;2023-04-03T11:22:24;5.80;;;2.55;;
73776;SDS011;62088;50.240;2.696;2023-04-03T11:24:58;5.90;;;2.60;;
73776;SDS011;62088;50.240;2.696;2023-04-03T11:36:12;6.35;;;2.60;;
73776;SDS011;62088;50.240;2.696;2023-04-03T11:38:51;5.40;;;2.42;;
73776;SDS011;62088;50.240;2.696;2023-04-03T11:41:30;5.20;;;2.58;;
73776;SDS011;62088;50.240;2.696;2023-04-03T11:43:59;11.18;;;2.90;;
73776;SDS011;62088;50.240;2.696;2023-04-03T12:06:41;5.97;;;3.58;;
73776;SDS011;62088;50.240;2.696;2023-04-03T12:08:44;6.07;;;3.50;;
73776;SDS011;62088;50.240;2.696;2023-04-03T12:16:19;6.93;;;3.47;;
73776;SDS011;62088;50.240;2.696;2023-04-03T12:21:20;6.53;;;3.08;;
73776;SDS011;62088;50.240;2.696;2023-04-03T12:24:02;7.32;;;3.42;;
73776;SDS011;62088;50.240;2.696;2023-04-03T12:26:41;6.78;;;3.75;;
73776;SDS011;62088;50.240;2.696;2023-04-03T12:43:21;7.32;;;3.53;;
73776;SDS011;62088;50.240;2.696;2023-04-03T12:46:09;5.20;;;2.80;;
73776;SDS011;62088;50.240;2.696;2023-04-03T12:48:50;6.18;;;3.50;;
73776;SDS011;62088;50.240;2.696;2023-04-03T12:51:37;5.38;;;3.60;;
73776;SDS011;62088;50.240;2.696;2023-04-03T12:54:23;6.43;;;3.70;;
73776;SDS011;62088;50.240;2.696;2023-04-03T12:57:08;5.72;;;3.15;;
73776;SDS011;62088;50.240;2.696;2023-04-03T12:59:37;4.85;;;3.20;;
73776;SDS011;62088;50.240;2.696;2023-04-03T13:02:10;6.22;;;3.63;;
73776;SDS011;62088;50.240;2.696;2023-04-03T13:04:51;6.28;;;3.63;;
73776;SDS011;62088;50.240;2.696;2023-04-03T13:07:27;7.50;;;3.70;;
73776;SDS011;62088;50.240;2.696;2023-04-03T13:12:29;5.90;;;3.85;;
73776;SDS011;62088;50.240;2.696;2023-04-03T13:14:59;5.63;;;3.75;;
73776;SDS011;62088;50.240;2.696;2023-04-03T13:17:30;7.22;;;3.95;;
73776;SDS011;62088;50.240;2.696;2023-04-03T13:20:09;5.90;;;3.60;;
73776;SDS011;62088;50.240;2.696;2023-04-03T13:22:46;9.02;;;4.88;;
73776;SDS011;62088;50.240;2.696;2023-04-03T13:25:17;7.10;;;4.07;;
73776;SDS011;62088;50.240;2.696;2023-04-03T13:27:47;10.15;;;4.20;;
73776;SDS011;62088;50.240;2.696;2023-04-03T13:30:25;8.13;;;3.92;;
73776;SDS011;62088;50.240;2.696;2023-04-03T13:32:53;7.97;;;4.32;;
73776;SDS011;62088;50.240;2.696;2023-04-03T13:35:30;6.60;;;3.55;;
73776;SDS011;62088;50.240;2.696;2023-04-03T13:38:06;6.63;;;3.67;;
73776;SDS011;62088;50.240;2.696;2023-04-03T13:40:53;7.22;;;4.07;;
73776;SDS011;62088;50.240;2.696;2023-04-03T13:43:26;7.90;;;5.10;;
73776;SDS011;62088;50.240;2.696;2023-04-03T13:45:59;8.30;;;5.32;;
73776;SDS011;62088;50.240;2.696;2023-04-03T13:48:36;6.00;;;3.97;;
73776;SDS011;62088;50.240;2.696;2023-04-03T13:53:56;6.50;;;3.72;;
73776;SDS011;62088;50.240;2.696;2023-04-03T13:56:30;5.95;;;3.78;;
73776;SDS011;62088;50.240;2.696;2023-04-03T13:59:40;7.90;;;3.88;;
73776;SDS011;62088;50.240;2.696;2023-04-03T14:04:30;5.65;;;3.47;;
73776;SDS011;62088;50.240;2.696;2023-04-03T14:07:12;5.60;;;3.63;;
73776;SDS011;62088;50.240;2.696;2023-04-03T14:09:41;6.72;;;3.70;;
73776;SDS011;62088;50.240;2.696;2023-04-03T14:12:13;6.07;;;3.70;;
73776;SDS011;62088;50.240;2.696;2023-04-03T14:14:56;8.23;;;4.40;;
73776;SDS011;62088;50.240;2.696;2023-04-03T14:17:24;7.35;;;4.22;;
73776;SDS011;62088;50.240;2.696;2023-04-03T14:19:53;7.00;;;3.97;;
73776;SDS011;62088;50.240;2.696;2023-04-03T14:22:23;8.82;;;3.70;;
73776;SDS011;62088;50.240;2.696;2023-04-03T14:24:58;10.07;;;5.43;;
73776;SDS011;62088;50.240;2.696;2023-04-03T14:27:27;10.63;;;5.88;;
73776;SDS011;62088;50.240;2.696;2023-04-03T14:29:56;8.15;;;3.45;;
73776;SDS011;62088;50.240;2.696;2023-04-03T14:32:24;7.25;;;4.13;;
73776;SDS011;62088;50.240;2.696;2023-04-03T14:34:52;9.13;;;3.42;;
73776;SDS011;62088;50.240;2.696;2023-04-03T14:37:21;6.60;;;3.63;;
73776;SDS011;62088;50.240;2.696;2023-04-03T14:39:51;9.05;;;3.45;;
73776;SDS011;62088;50.240;2.696;2023-04-03T14:42:21;6.15;;;3.20;;
73776;SDS011;62088;50.240;2.696;2023-04-03T14:44:50;5.55;;;3.13;;
73776;SDS011;62088;50.240;2.696;2023-04-03T14:47:22;5.68;;;3.20;;
73776;SDS011;62088;50.240;2.696;2023-04-03T14:50:01;6.20;;;3.17;;
73776;SDS011;62088;50.240;2.696;2023-04-03T14:52:31;8.25;;;3.30;;
73776;SDS011;62088;50.240;2.696;2023-04-03T14:55:00;5.82;;;3.13;;
73776;SDS011;62088;50.240;2.696;2023-04-03T14:57:29;6.80;;;3.10;;
73776;SDS011;62088;50.240;2.696;2023-04-03T14:59:57;5.07;;;2.78;;
73776;SDS011;62088;50.240;2.696;2023-04-03T15:04:55;5.60;;;3.17;;
73776;SDS011;62088;50.240;2.696;2023-04-03T15:07:24;6.30;;;3.13;;
73776;SDS011;62088;50.240;2.696;2023-04-03T15:09:53;6.50;;;2.70;;
73776;SDS011;62088;50.240;2.696;2023-04-03T15:12:23;5.55;;;2.47;;
73776;SDS011;62088;50.240;2.696;2023-04-03T15:14:51;5.18;;;2.38;;
73776;SDS011;62088;50.240;2.696;2023-04-03T15:17:28;8.18;;;2.70;;
73776;SDS011;62088;50.240;2.696;2023-04-03T15:19:55;4.72;;;2.50;;
73776;SDS011;62088;50.240;2.696;2023-04-03T15:22:22;7.03;;;2.90;;
73776;SDS011;62088;50.240;2.696;2023-04-03T15:24:49;6.43;;;3.10;;
73776;SDS011;62088;50.240;2.696;2023-04-03T15:27:16;4.07;;;2.38;;
73776;SDS011;62088;50.240;2.696;2023-04-03T15:29:44;4.55;;;2.40;;
73776;SDS011;62088;50.240;2.696;2023-04-03T15:32:11;5.60;;;2.35;;
73776;SDS011;62088;50.240;2.696;2023-04-03T15:34:39;5.05;;;2.58;;
73776;SDS011;62088;50.240;2.696;2023-04-03T15:37:06;4.53;;;1.98;;
73776;SDS011;62088;50.240;2.696;2023-04-03T15:39:33;6.00;;;2.70;;
73776;SDS011;62088;50.240;2.696;2023-04-03T15:42:00;5.40;;;2.67;;
73776;SDS011;62088;50.240;2.696;2023-04-03T15:44:33;4.90;;;2.30;;
73776;SDS011;62088;50.240;2.696;2023-04-03T15:47:01;5.20;;;2.35;;
73776;SDS011;62088;50.240;2.696;2023-04-03T15:49:29;5.28;;;2.50;;
73776;SDS011;62088;50.240;2.696;2023-04-03T15:51:57;5.75;;;2.15;;
73776;SDS011;62088;50.240;2.696;2023-04-03T15:54:24;5.85;;;2.40;;
73776;SDS011;62088;50.240;2.696;2023-04-03T15:56:52;7.75;;;2.70;;
73776;SDS011;62088;50.240;2.696;2023-04-03T15:59:19;6.00;;;2.25;;
73776;SDS011;62088;50.240;2.696;2023-04-03T16:01:47;5.30;;;2.05;;
73776;SDS011;62088;50.240;2.696;2023-04-03T16:04:16;4.47;;;2.20;;
73776;SDS011;62088;50.240;2.696;2023-04-03T16:06:45;4.60;;;2.33;;
73776;SDS011;62088;50.240;2.696;2023-04-03T16:09:13;4.40;;;1.95;;
73776;SDS011;62088;50.240;2.696;2023-04-03T16:11:40;5.97;;;2.15;;
73776;SDS011;62088;50.240;2.696;2023-04-03T16:14:07;5.50;;;2.47;;
73776;SDS011;62088;50.240;2.696;2023-04-03T16:16:34;5.47;;;2.05;;
73776;SDS011;62088;50.240;2.696;2023-04-03T16:19:02;5.15;;;2.05;;
73776;SDS011;62088;50.240;2.696;2023-04-03T16:21:29;5.85;;;2.17;;
73776;SDS011;62088;50.240;2.696;2023-04-03T16:23:58;6.53;;;2.63;;
73776;SDS011;62088;50.240;2.696;2023-04-03T16:26:26;5.43;;;2.40;;
73776;SDS011;62088;50.240;2.696;2023-04-03T16:28:53;7.20;;;2.33;;
73776;SDS011;62088;50.240;2.696;2023-04-03T16:31:21;5.22;;;2.40;;
73776;SDS011;62088;50.240;2.696;2023-04-03T16:33:50;4.88;;;2.40;;
73776;SDS011;62088;50.240;2.696;2023-04-03T16:36:17;7.68;;;2.72;;
73776;SDS011;62088;50.240;2.696;2023-04-03T16:38:45;5.65;;;2.50;;
73776;SDS011;62088;50.240;2.696;2023-04-03T16:41:12;6.25;;;2.33;;
73776;SDS011;62088;50.240;2.696;2023-04-03T16:43:38;6.90;;;2.50;;
73776;SDS011;62088;50.240;2.696;2023-04-03T16:46:11;4.65;;;2.15;;
73776;SDS011;62088;50.240;2.696;2023-04-03T16:48:38;5.97;;;2.30;;
73776;SDS011;62088;50.240;2.696;2023-04-03T16:51:05;6.05;;;2.42;;
73776;SDS011;62088;50.240;2.696;2023-04-03T16:53:32;5.97;;;2.25;;
73776;SDS011;62088;50.240;2.696;2023-04-03T16:55:59;6.10;;;1.88;;
73776;SDS011;62088;50.240;2.696;2023-04-03T16:58:26;7.40;;;2.70;;
73776;SDS011;62088;50.240;2.696;2023-04-03T17:00:53;6.22;;;2.60;;
73776;SDS011;62088;50.240;2.696;2023-04-03T17:03:21;5.10;;;2.30;;
73776;SDS011;62088;50.240;2.696;2023-04-03T17:05:52;5.20;;;2.50;;
73776;SDS011;62088;50.240;2.696;2023-04-03T17:08:19;7.60;;;2.70;;
73776;SDS011;62088;50.240;2.696;2023-04-03T17:10:46;6.10;;;2.72;;
73776;SDS011;62088;50.240;2.696;2023-04-03T17:13:16;5.45;;;2.50;;
73776;SDS011;62088;50.240;2.696;2023-04-03T17:15:43;8.02;;;2.80;;